Archival Weather

Chicago O'Hare International

Chicago, Illinois (KORD)

Report from: Friday, December 23, 2022 11:51 AM CST
Current time: Monday, June 17, 2024 3:11 AM CDT

Current weather – Weather history – Daily summaries
Weather forecast

Present weatherBlowing snow
Temperature-19.4°C (-2.9°F)
Wind chill-33.9°C (-29.0°F)
Dew point-25.0°C (-13.0°F)
Winds 24 kts (12.3 m/s, 27.6 mph) West (270°)
Wind gusts 38 kts (19.5 m/s, 43.7 mph)
Peak wind 38 kts (19.5 m/s, 43.7 mph) West (270°) at 17:43
Visibility4 mi. (6.4 km)
Clouds Ceiling: Broken clouds 2,100 ft. (640 m)
Broken clouds 15,000 ft. (4,572 m)
Altimeter29.82 in.Hg (1010 mB)
Relative humidity61 %
Density altitude-4,326 ft. (-1,319 m)
Sea-level pressure101.2 kPa (1012 mB, 29.88 in.Hg)
Max temp last 6 hours-19.4°C (-2.9°F)
Min temp last 6 hours-22.2°C (-8.0°F)
Snow depth1.00 in. (25 mm)
Remarks System requires maintenance
Automated weather observing station with precipitation discriminator
Pressure falling more quickly
Flight conditions Marginal Visual Meteorological Conditions
Raw dataKORD 231751Z 27024G38KT 4SM BLSN BKN021 BKN150 M19/M25 A2982 RMK AO2 PK WND 27038/1743 SLP117 4/001 T11941250 11194 21222 58007 $
An error has occurred. This application may no longer respond until reloaded. Reload 🗙